createdAt,value
2018-05-15T00:01:39.480Z,5.47
2018-05-15T00:04:07.489Z,5.87
2018-05-15T00:06:35.655Z,7.20
2018-05-15T00:09:03.878Z,8.03
2018-05-15T00:11:31.934Z,9.07
2018-05-15T00:14:00.925Z,10.53
2018-05-15T00:16:29.678Z,6.17
2018-05-15T00:18:57.728Z,8.57
2018-05-15T00:21:25.779Z,8.77
2018-05-15T00:23:53.838Z,7.50
2018-05-15T00:26:22.630Z,7.27
2018-05-15T00:28:50.750Z,8.07
2018-05-15T00:31:18.756Z,7.23
2018-05-15T00:33:47.595Z,7.10
2018-05-15T00:36:15.636Z,7.00
2018-05-15T00:38:43.627Z,5.50
2018-05-15T00:41:11.723Z,7.10
2018-05-15T00:43:39.781Z,6.07
2018-05-15T00:46:07.834Z,6.87
2018-05-15T00:48:35.886Z,6.27
2018-05-15T00:51:03.967Z,7.83
2018-05-15T00:53:31.995Z,5.47
2018-05-15T00:56:00.086Z,4.70
2018-05-15T00:58:28.984Z,7.33
2018-05-15T01:00:57.767Z,4.43
2018-05-15T01:03:26.634Z,5.53
2018-05-15T01:05:54.655Z,7.00
2018-05-15T01:08:22.754Z,6.33
2018-05-15T01:10:51.590Z,6.07
2018-05-15T01:13:20.369Z,6.83
2018-05-15T01:15:48.432Z,7.57
2018-05-15T01:18:16.496Z,7.73
2018-05-15T01:20:44.617Z,6.33
2018-05-15T01:23:12.643Z,6.13
2018-05-15T01:25:40.728Z,4.40
2018-05-15T01:28:08.889Z,6.83
2018-05-15T01:30:37.030Z,6.30
2018-05-15T01:33:05.903Z,4.57
2018-05-15T01:35:34.000Z,5.53
2018-05-15T01:38:02.114Z,4.23
2018-05-15T01:40:30.152Z,4.27
2018-05-15T01:42:58.234Z,6.37
2018-05-15T01:45:26.322Z,9.13
2018-05-15T01:47:54.363Z,6.43
2018-05-15T01:50:22.505Z,4.77
2018-05-15T01:52:50.484Z,7.77
2018-05-15T01:55:18.557Z,6.17
2018-05-15T01:57:46.615Z,6.63
2018-05-15T02:00:14.651Z,4.77
2018-05-15T02:02:42.688Z,11.40
2018-05-15T02:05:10.750Z,4.97
2018-05-15T02:07:38.854Z,8.10
2018-05-15T02:10:06.913Z,4.60
2018-05-15T02:12:35.057Z,6.37
2018-05-15T02:15:03.116Z,6.43
2018-05-15T02:17:31.964Z,7.03
2018-05-15T02:20:00.007Z,9.37
2018-05-15T02:22:28.875Z,7.00
2018-05-15T02:24:56.913Z,5.30
2018-05-15T02:27:25.019Z,9.73
2018-05-15T02:29:53.106Z,7.73
2018-05-15T02:32:21.146Z,6.87
2018-05-15T02:34:50.067Z,8.13
2018-05-15T02:37:18.130Z,9.43
2018-05-15T02:39:46.253Z,9.40
2018-05-15T02:42:14.303Z,6.23
2018-05-15T02:44:42.335Z,7.73
2018-05-15T02:47:11.205Z,7.00
2018-05-15T02:49:39.337Z,5.50
2018-05-15T02:52:07.401Z,7.63
2018-05-15T02:54:35.536Z,8.40
2018-05-15T02:57:04.437Z,7.50
2018-05-15T02:59:33.309Z,7.17
2018-05-15T03:02:02.154Z,6.80
2018-05-15T03:04:31.016Z,7.77
2018-05-15T03:06:59.089Z,8.23
2018-05-15T03:09:27.139Z,7.00
2018-05-15T03:11:55.979Z,8.57
2018-05-15T03:14:23.983Z,6.67
2018-05-15T03:16:52.060Z,8.53
2018-05-15T03:19:20.115Z,8.67
2018-05-15T03:21:48.142Z,7.40
2018-05-15T03:24:16.171Z,6.73
2018-05-15T03:26:44.204Z,7.30
2018-05-15T03:29:12.329Z,7.87
2018-05-15T03:31:41.116Z,7.20
2018-05-15T03:34:10.005Z,10.07
2018-05-15T03:36:38.834Z,9.53
2018-05-15T03:39:06.893Z,8.40
2018-05-15T03:41:34.927Z,8.17
2018-05-15T03:44:03.015Z,8.87
2018-05-15T03:46:31.941Z,7.37
2018-05-15T03:49:00.024Z,12.00
2018-05-15T03:51:28.126Z,7.77
2018-05-15T03:53:56.182Z,9.50
2018-05-15T03:56:24.270Z,10.30
2018-05-15T03:58:52.381Z,8.67
2018-05-15T04:01:33.131Z,9.10
2018-05-15T04:04:13.722Z,8.80
2018-05-15T04:06:53.864Z,9.47
2018-05-15T04:09:21.995Z,10.47
2018-05-15T04:11:50.055Z,9.90
2018-05-15T04:14:18.183Z,9.57
2018-05-15T04:16:47.024Z,8.97
2018-05-15T04:19:15.038Z,8.43
2018-05-15T04:21:43.892Z,10.60
2018-05-15T04:24:11.998Z,9.47
2018-05-15T04:26:40.816Z,10.10
2018-05-15T04:29:08.931Z,7.83
2018-05-15T04:31:37.053Z,11.20
2018-05-15T04:34:05.177Z,11.30
2018-05-15T04:36:33.192Z,10.70
2018-05-15T04:39:02.090Z,11.67
2018-05-15T04:41:30.200Z,12.13
2018-05-15T04:43:58.280Z,13.93
2018-05-15T04:46:26.349Z,12.73
2018-05-15T04:48:54.677Z,13.13
2018-05-15T04:51:23.527Z,14.60
2018-05-15T04:53:51.676Z,12.70
2018-05-15T04:56:19.703Z,12.97
2018-05-15T04:58:48.584Z,12.10
2018-05-15T05:01:16.721Z,11.70
2018-05-15T05:03:44.806Z,11.50
2018-05-15T05:06:12.862Z,13.13
2018-05-15T05:08:40.883Z,13.80
2018-05-15T05:11:09.647Z,12.23
2018-05-15T05:13:37.731Z,14.60
2018-05-15T05:16:05.823Z,14.73
2018-05-15T05:18:34.729Z,13.93
2018-05-15T05:21:02.799Z,12.70
2018-05-15T05:23:30.897Z,12.93
2018-05-15T05:25:59.034Z,14.10
2018-05-15T05:28:27.917Z,14.50
2018-05-15T05:30:56.725Z,13.80
2018-05-15T05:33:24.802Z,13.57
2018-05-15T05:35:53.606Z,14.87
2018-05-15T05:38:21.743Z,16.70
2018-05-15T05:40:50.638Z,13.33
2018-05-15T05:43:19.490Z,14.87
2018-05-15T05:45:47.488Z,14.30
2018-05-15T05:48:16.263Z,14.40
2018-05-15T05:50:44.344Z,13.77
2018-05-15T05:53:12.411Z,14.83
2018-05-15T05:55:40.493Z,15.53
2018-05-15T05:58:09.311Z,15.83
2018-05-15T06:00:37.379Z,15.73
2018-05-15T06:03:05.487Z,13.57
2018-05-15T06:05:33.595Z,14.37
2018-05-15T06:08:01.654Z,12.57
2018-05-15T06:10:29.755Z,15.30
2018-05-15T06:12:58.686Z,15.47
2018-05-15T06:15:26.797Z,13.10
2018-05-15T06:17:54.852Z,14.17
2018-05-15T06:20:22.907Z,11.97
2018-05-15T06:22:51.011Z,13.03
2018-05-15T06:25:19.050Z,14.70
2018-05-15T06:27:47.170Z,14.20
2018-05-15T06:30:15.941Z,13.77
2018-05-15T06:32:44.068Z,13.47
2018-05-15T06:35:12.083Z,13.97
2018-05-15T06:37:40.147Z,15.07
2018-05-15T06:40:08.199Z,13.83
2018-05-15T06:42:36.274Z,13.53
2018-05-15T06:45:04.443Z,16.73
2018-05-15T06:47:32.497Z,13.50
2018-05-15T06:50:00.632Z,13.43
2018-05-15T06:52:28.687Z,13.87
2018-05-15T06:54:56.768Z,15.83
2018-05-15T06:57:24.854Z,17.00
2018-05-15T06:59:53.683Z,19.03
2018-05-15T07:02:21.778Z,14.57
2018-05-15T07:04:49.809Z,13.13
2018-05-15T07:07:17.822Z,17.03
2018-05-15T07:09:45.885Z,12.77
2018-05-15T07:12:13.990Z,8.10
2018-05-15T07:14:42.063Z,9.10
2018-05-15T07:17:10.070Z,13.87
2018-05-15T07:19:38.122Z,8.07
2018-05-15T07:22:06.973Z,12.13
2018-05-15T07:24:34.985Z,9.93
2018-05-15T07:27:03.843Z,9.27
2018-05-15T07:29:31.869Z,10.43
2018-05-15T07:31:59.929Z,10.30
2018-05-15T07:34:28.006Z,11.20
2018-05-15T07:36:56.010Z,14.53
2018-05-15T07:39:24.081Z,14.63
2018-05-15T07:41:52.177Z,15.50
2018-05-15T07:44:20.237Z,14.40
2018-05-15T07:46:48.244Z,16.57
2018-05-15T07:49:17.113Z,17.17
2018-05-15T07:51:45.147Z,23.47
2018-05-15T07:54:13.307Z,20.97
2018-05-15T07:56:41.400Z,20.67
2018-05-15T07:59:09.510Z,20.60
2018-05-15T08:01:37.538Z,22.33
2018-05-15T08:04:05.646Z,21.00
2018-05-15T08:06:33.775Z,21.53
2018-05-15T08:09:01.933Z,21.73
2018-05-15T08:11:30.110Z,20.87
2018-05-15T08:13:58.214Z,20.77
2018-05-15T08:16:26.436Z,21.20
2018-05-15T08:18:56.288Z,19.63
2018-05-15T08:21:24.371Z,21.27
2018-05-15T08:23:52.448Z,21.83
2018-05-15T08:26:20.515Z,23.97
2018-05-15T08:28:49.401Z,19.87
2018-05-15T08:31:17.481Z,20.93
2018-05-15T08:33:45.555Z,21.03
2018-05-15T08:36:13.701Z,20.77
2018-05-15T08:38:41.699Z,22.40
2018-05-15T08:41:09.845Z,23.00
2018-05-15T08:43:37.970Z,21.03
2018-05-15T08:46:06.118Z,22.50
2018-05-15T08:48:34.331Z,20.70
2018-05-15T08:51:02.415Z,23.40
2018-05-15T08:53:31.411Z,20.40
2018-05-15T08:56:00.287Z,21.57
2018-05-15T08:58:28.371Z,23.97
2018-05-15T09:00:57.186Z,21.93
2018-05-15T09:03:25.293Z,23.20
2018-05-15T09:05:53.351Z,22.60
2018-05-15T09:08:21.470Z,21.10
2018-05-15T09:10:50.340Z,19.73
2018-05-15T09:13:18.416Z,21.27
2018-05-15T09:15:46.531Z,21.23
2018-05-15T09:18:14.710Z,20.67
2018-05-15T09:20:42.832Z,23.17
2018-05-15T09:23:10.917Z,21.30
2018-05-15T09:25:39.052Z,22.60
2018-05-15T09:28:07.153Z,21.73
2018-05-15T09:30:35.263Z,26.57
2018-05-15T09:33:04.115Z,19.57
2018-05-15T09:35:32.183Z,18.57
2018-05-15T09:38:00.226Z,21.73
2018-05-15T09:40:28.315Z,20.03
2018-05-15T09:42:56.425Z,20.77
2018-05-15T09:45:25.276Z,18.90
2018-05-15T09:47:53.383Z,20.27
2018-05-15T09:50:21.457Z,21.17
2018-05-15T09:52:49.533Z,20.30
2018-05-15T09:55:17.629Z,21.70
2018-05-15T09:57:45.646Z,18.27
2018-05-15T10:00:13.753Z,18.57
2018-05-15T10:02:42.548Z,18.63
2018-05-15T10:05:11.317Z,20.77
2018-05-15T10:07:39.441Z,20.47
2018-05-15T10:10:07.532Z,20.80
2018-05-15T10:12:35.609Z,19.00
2018-05-15T10:15:03.695Z,18.07
2018-05-15T10:17:31.757Z,15.23
2018-05-15T10:19:59.876Z,14.40
2018-05-15T10:22:28.013Z,14.07
2018-05-15T10:24:56.054Z,14.13
2018-05-15T10:27:24.882Z,14.97
2018-05-15T10:29:53.196Z,14.93
2018-05-15T10:32:22.131Z,14.40
2018-05-15T10:34:50.309Z,14.97
2018-05-15T10:37:18.445Z,14.73
2018-05-15T10:39:46.562Z,14.57
2018-05-15T10:42:14.559Z,15.83
2018-05-15T10:44:43.384Z,16.73
2018-05-15T10:47:11.434Z,14.50
2018-05-15T10:49:40.204Z,16.83
2018-05-15T10:52:08.218Z,13.90
2018-05-15T10:54:36.288Z,16.20
2018-05-15T10:57:04.347Z,15.33
2018-05-15T10:59:32.451Z,16.07
2018-05-15T11:02:00.581Z,16.07
2018-05-15T11:04:29.412Z,17.17
2018-05-15T11:06:57.553Z,14.47
2018-05-15T11:09:26.410Z,16.37
2018-05-15T11:11:54.475Z,14.33
2018-05-15T11:14:22.597Z,13.63
2018-05-15T11:16:50.754Z,17.27
2018-05-15T11:19:31.652Z,15.63
2018-05-15T11:22:11.716Z,14.83
2018-05-15T11:24:51.859Z,16.20
2018-05-15T11:27:19.995Z,13.53
2018-05-15T11:29:48.926Z,15.67
2018-05-15T11:32:16.973Z,14.47
2018-05-15T11:34:45.035Z,14.63
2018-05-15T11:37:13.146Z,12.17
2018-05-15T11:39:41.272Z,15.23
2018-05-15T11:42:09.295Z,14.63
2018-05-15T11:44:37.401Z,14.13
2018-05-15T11:47:05.529Z,13.73
2018-05-15T11:49:34.110Z,14.00
2018-05-15T11:52:03.479Z,11.73
2018-05-15T11:54:30.846Z,12.83
2018-05-15T11:56:59.704Z,8.10
2018-05-15T11:59:27.854Z,4.40
2018-05-15T12:01:56.688Z,4.10
2018-05-15T12:04:25.569Z,4.40
2018-05-15T12:06:53.669Z,3.77
2018-05-15T12:09:22.573Z,3.53
2018-05-15T12:11:50.603Z,3.97
2018-05-15T12:14:18.617Z,3.40
2018-05-15T12:16:46.760Z,6.43
2018-05-15T12:19:15.613Z,3.90
2018-05-15T12:21:43.595Z,3.73
2018-05-15T12:24:11.718Z,3.90
2018-05-15T12:26:39.834Z,3.93
2018-05-15T12:29:07.946Z,3.13
2018-05-15T12:31:36.770Z,4.28
2018-05-15T12:34:04.803Z,3.80
2018-05-15T12:36:33.627Z,2.77
2018-05-15T12:39:02.440Z,3.20
2018-05-15T12:41:30.568Z,5.25
2018-05-15T12:43:58.596Z,4.93
2018-05-15T12:46:26.642Z,3.85
2018-05-15T12:48:54.718Z,3.80
2018-05-15T12:51:22.734Z,4.77
2018-05-15T12:53:50.864Z,2.73
2018-05-15T12:56:19.652Z,2.60
2018-05-15T12:58:47.774Z,3.20
2018-05-15T13:01:16.701Z,4.20
2018-05-15T13:03:44.755Z,4.40
2018-05-15T13:06:13.622Z,3.00
2018-05-15T13:08:41.642Z,2.83
2018-05-15T13:11:09.677Z,3.00
2018-05-15T13:13:38.515Z,4.93
2018-05-15T13:16:06.562Z,4.03
2018-05-15T13:18:34.819Z,5.47
2018-05-15T13:21:02.774Z,4.13
2018-05-15T13:23:31.741Z,4.47
2018-05-15T13:25:59.959Z,4.27
2018-05-15T13:28:28.786Z,4.67
2018-05-15T13:30:56.897Z,4.70
2018-05-15T13:33:24.961Z,5.80
2018-05-15T13:35:53.025Z,5.27
2018-05-15T13:38:21.079Z,5.13
2018-05-15T13:40:49.198Z,6.17
2018-05-15T13:43:18.085Z,6.13
2018-05-15T13:45:46.926Z,5.63
2018-05-15T13:48:14.938Z,4.23
2018-05-15T13:50:43.046Z,4.40
2018-05-15T13:53:11.136Z,5.07
2018-05-15T13:55:39.159Z,5.33
2018-05-15T13:58:07.245Z,4.60
2018-05-15T14:00:36.150Z,3.73
2018-05-15T14:03:04.295Z,3.57
2018-05-15T14:05:32.360Z,4.93
2018-05-15T14:08:00.485Z,3.33
2018-05-15T14:10:29.343Z,3.80
2018-05-15T14:12:58.615Z,4.03
2018-05-15T14:15:27.452Z,2.83
2018-05-15T14:17:55.464Z,3.13
2018-05-15T14:20:23.510Z,3.30
2018-05-15T14:22:51.529Z,3.43
2018-05-15T14:25:19.582Z,3.93
2018-05-15T14:27:47.657Z,3.10
2018-05-15T14:30:15.757Z,5.50
2018-05-15T14:32:44.585Z,3.03
2018-05-15T14:35:12.682Z,3.50
2018-05-15T14:37:40.787Z,3.20
2018-05-15T14:40:09.635Z,2.93
2018-05-15T14:42:49.686Z,3.10
2018-05-15T14:45:17.797Z,2.17
2018-05-15T14:47:45.899Z,2.90
2018-05-15T14:50:13.888Z,3.30
2018-05-15T14:52:41.981Z,3.57
2018-05-15T14:55:10.029Z,3.10
2018-05-15T14:57:38.134Z,3.43
2018-05-15T15:00:07.178Z,3.50
2018-05-15T15:02:35.984Z,4.25
2018-05-15T15:05:04.099Z,5.03
2018-05-15T15:07:32.127Z,3.87
2018-05-15T15:10:00.164Z,4.03
2018-05-15T15:12:28.994Z,2.67
2018-05-15T15:14:57.070Z,3.63
2018-05-15T15:17:25.186Z,2.83
2018-05-15T15:19:53.285Z,2.57
2018-05-15T15:22:22.186Z,3.33
2018-05-15T15:24:50.233Z,3.67
2018-05-15T15:27:19.129Z,2.67
2018-05-15T15:29:47.931Z,2.55
2018-05-15T15:32:16.850Z,4.87
2018-05-15T15:34:44.945Z,3.53
2018-05-15T15:37:13.069Z,2.10
2018-05-15T15:39:41.973Z,2.33
2018-05-15T15:42:10.153Z,2.10
2018-05-15T15:44:38.104Z,3.00
2018-05-15T15:47:07.002Z,2.50
2018-05-15T15:49:35.149Z,1.70
2018-05-15T15:52:03.568Z,1.80
2018-05-15T15:54:31.673Z,1.70
2018-05-15T15:56:59.768Z,1.90
2018-05-15T15:59:27.814Z,1.73
2018-05-15T16:01:55.880Z,2.23
2018-05-15T16:04:23.946Z,1.80
2018-05-15T16:06:52.068Z,2.17
2018-05-15T16:09:20.878Z,1.97
2018-05-15T16:11:48.958Z,1.90
2018-05-15T16:14:17.030Z,2.53
2018-05-15T16:16:45.129Z,2.57
2018-05-15T16:19:13.226Z,2.67
2018-05-15T16:21:41.348Z,1.50
2018-05-15T16:24:09.392Z,1.50
2018-05-15T16:26:38.198Z,1.97
2018-05-15T16:29:07.085Z,2.03
2018-05-15T16:31:35.901Z,3.30
2018-05-15T16:34:04.000Z,2.00
2018-05-15T16:36:32.085Z,2.80
2018-05-15T16:39:00.198Z,1.37
2018-05-15T16:41:28.319Z,2.00
2018-05-15T16:43:56.350Z,1.70
2018-05-15T16:46:24.411Z,1.80
2018-05-15T16:48:53.195Z,2.00
2018-05-15T16:51:22.011Z,2.27
2018-05-15T16:53:50.110Z,1.97
2018-05-15T16:56:18.133Z,2.33
2018-05-15T16:58:47.041Z,3.53
2018-05-15T17:01:15.836Z,3.30
2018-05-15T17:03:43.983Z,1.60
2018-05-15T17:06:12.856Z,2.00
2018-05-15T17:08:40.883Z,2.50
2018-05-15T17:11:08.910Z,2.40
2018-05-15T17:13:37.852Z,2.73
2018-05-15T17:16:07.091Z,2.33
2018-05-15T17:18:37.902Z,2.13
2018-05-15T17:21:05.982Z,3.33
2018-05-15T17:23:34.130Z,3.33
2018-05-15T17:26:02.342Z,2.63
2018-05-15T17:28:30.384Z,2.80
2018-05-15T17:30:58.431Z,2.23
2018-05-15T17:33:26.480Z,3.80
2018-05-15T17:35:55.354Z,3.23
2018-05-15T17:38:24.141Z,3.43
2018-05-15T17:40:52.285Z,3.40
2018-05-15T17:43:20.316Z,4.60
2018-05-15T17:45:48.367Z,3.27
2018-05-15T17:48:17.239Z,3.30
2018-05-15T17:50:45.261Z,2.60
2018-05-15T17:53:13.303Z,2.33
2018-05-15T17:55:42.278Z,4.43
2018-05-15T17:58:10.279Z,2.10
2018-05-15T18:00:38.517Z,2.43
2018-05-15T18:03:06.568Z,2.03
2018-05-15T18:05:34.677Z,2.13
2018-05-15T18:08:03.528Z,2.07
2018-05-15T18:10:31.645Z,3.03
2018-05-15T18:13:00.499Z,2.37
2018-05-15T18:15:28.562Z,2.33
2018-05-15T18:17:56.667Z,2.40
2018-05-15T18:20:24.726Z,3.17
2018-05-15T18:22:52.955Z,2.43
2018-05-15T18:25:21.019Z,3.20
2018-05-15T18:27:49.117Z,4.37
2018-05-15T18:30:17.182Z,4.10
2018-05-15T18:32:46.024Z,3.27
2018-05-15T18:35:14.109Z,3.07
2018-05-15T18:37:42.910Z,2.50
2018-05-15T18:40:11.764Z,5.30
2018-05-15T18:42:39.798Z,4.27
2018-05-15T18:45:07.946Z,4.63
2018-05-15T18:47:36.724Z,3.63
2018-05-15T18:50:05.633Z,4.23
2018-05-15T18:52:33.748Z,3.00
2018-05-15T18:55:01.903Z,4.17
2018-05-15T18:57:29.955Z,3.90
2018-05-15T18:59:58.038Z,3.53
2018-05-15T19:02:26.091Z,4.73
2018-05-15T19:04:54.225Z,5.47
2018-05-15T19:07:22.250Z,6.20
2018-05-15T19:09:50.386Z,6.80
2018-05-15T19:12:19.244Z,5.37
2018-05-15T19:14:47.247Z,5.57
2018-05-15T19:17:16.142Z,6.53
2018-05-15T19:19:44.967Z,3.93
2018-05-15T19:22:13.091Z,6.80
2018-05-15T19:24:41.242Z,4.30
2018-05-15T19:27:09.391Z,4.77
2018-05-15T19:29:37.432Z,3.50
2018-05-15T19:32:11.798Z,3.47
2018-05-15T19:34:45.605Z,3.27
2018-05-15T19:37:13.790Z,6.63
2018-05-15T19:39:44.815Z,2.90
2018-05-15T19:42:12.923Z,3.97
2018-05-15T19:44:41.102Z,2.90
2018-05-15T19:47:09.250Z,3.17
2018-05-15T19:49:37.389Z,3.00
2018-05-15T19:52:05.590Z,3.13
2018-05-15T19:54:33.703Z,3.20
2018-05-15T19:57:02.564Z,4.20
2018-05-15T19:59:30.705Z,4.20
2018-05-15T20:01:58.799Z,4.57
2018-05-15T20:04:26.826Z,3.90
2018-05-15T20:06:55.729Z,3.30
2018-05-15T20:09:23.722Z,5.40
2018-05-15T20:11:53.163Z,2.70
2018-05-15T20:14:21.176Z,2.83
2018-05-15T20:16:49.201Z,3.43
2018-05-15T20:19:17.299Z,3.57
2018-05-15T20:21:46.189Z,4.10
2018-05-15T20:24:15.028Z,3.50
2018-05-15T20:26:43.037Z,4.83
2018-05-15T20:29:11.242Z,2.77
2018-05-15T20:31:39.391Z,5.07
2018-05-15T20:34:08.259Z,3.77
2018-05-15T20:36:36.355Z,2.40
2018-05-15T20:39:06.089Z,2.20
2018-05-15T20:41:34.099Z,2.93
2018-05-15T20:44:02.377Z,2.40
2018-05-15T20:46:30.406Z,3.90
2018-05-15T20:48:58.539Z,3.13
2018-05-15T20:51:26.628Z,5.77
2018-05-15T20:53:54.712Z,6.87
2018-05-15T20:56:23.571Z,5.10
2018-05-15T20:58:51.673Z,4.83
2018-05-15T21:01:20.538Z,3.80
2018-05-15T21:03:48.594Z,3.00
2018-05-15T21:06:16.615Z,2.40
2018-05-15T21:08:45.414Z,4.00
2018-05-15T21:11:13.454Z,3.50
2018-05-15T21:13:41.512Z,2.60
2018-05-15T21:16:09.540Z,2.10
2018-05-15T21:18:37.571Z,2.43
2018-05-15T21:21:06.370Z,2.00
2018-05-15T21:23:35.418Z,2.00
2018-05-15T21:26:03.486Z,3.10
2018-05-15T21:28:31.535Z,3.60
2018-05-15T21:30:59.544Z,3.50
2018-05-15T21:33:27.641Z,3.53
2018-05-15T21:35:56.511Z,3.13
2018-05-15T21:38:24.531Z,2.17
2018-05-15T21:40:52.561Z,2.23
2018-05-15T21:43:20.647Z,2.93
2018-05-15T21:45:49.479Z,4.60
2018-05-15T21:48:17.535Z,4.70
2018-05-15T21:50:45.636Z,1.90
2018-05-15T21:53:13.752Z,1.87
2018-05-15T21:55:41.793Z,2.03
2018-05-15T21:58:09.839Z,2.27
2018-05-15T22:00:37.928Z,1.90
2018-05-15T22:03:06.003Z,2.73
2018-05-15T22:05:34.056Z,1.97
2018-05-15T22:08:02.148Z,2.90
2018-05-15T22:10:30.156Z,2.43
2018-05-15T22:13:10.649Z,3.90
2018-05-15T22:15:50.599Z,2.20
2018-05-15T22:18:30.619Z,4.60
2018-05-15T22:21:10.614Z,1.80
2018-05-15T22:23:38.147Z,1.67
2018-05-15T22:26:06.986Z,1.90
2018-05-15T22:28:35.050Z,3.00
2018-05-15T22:31:03.164Z,3.17
2018-05-15T22:33:31.258Z,2.77
2018-05-15T22:36:00.087Z,2.67
2018-05-15T22:38:28.214Z,2.63
2018-05-15T22:40:57.052Z,1.70
2018-05-15T22:43:25.124Z,1.73
2018-05-15T22:45:53.170Z,2.30
2018-05-15T22:48:21.216Z,3.40
2018-05-15T22:50:50.039Z,1.60
2018-05-15T22:53:18.101Z,3.10
2018-05-15T22:55:46.123Z,1.93
2018-05-15T22:58:14.181Z,4.07
2018-05-15T23:00:42.275Z,2.50
2018-05-15T23:03:10.265Z,2.87
2018-05-15T23:05:39.089Z,3.03
2018-05-15T23:08:07.152Z,2.60
2018-05-15T23:10:35.275Z,1.73
2018-05-15T23:13:03.315Z,2.17
2018-05-15T23:15:31.439Z,2.37
2018-05-15T23:18:00.715Z,2.63
2018-05-15T23:20:28.811Z,2.40
2018-05-15T23:22:57.630Z,3.03
2018-05-15T23:25:25.730Z,4.30
2018-05-15T23:27:53.806Z,1.70
2018-05-15T23:30:21.903Z,2.67
2018-05-15T23:32:49.988Z,2.13
2018-05-15T23:35:18.811Z,2.23
2018-05-15T23:37:46.908Z,3.27
2018-05-15T23:40:14.976Z,2.73
2018-05-15T23:42:42.994Z,1.90
2018-05-15T23:45:11.864Z,3.07
2018-05-15T23:47:40.009Z,2.97
2018-05-15T23:50:08.110Z,1.60
2018-05-15T23:52:36.273Z,1.83
2018-05-15T23:55:04.299Z,3.30
2018-05-15T23:57:32.454Z,4.40
